createdAt,value
2023-05-24T00:00:41.644Z,27.60
2023-05-24T00:01:41.540Z,31.70
2023-05-24T00:02:41.469Z,38.30
2023-05-24T00:03:41.491Z,47.90
2023-05-24T00:04:41.259Z,20.40
2023-05-24T00:05:41.342Z,36.10
2023-05-24T00:06:41.181Z,29.30
2023-05-24T00:07:41.053Z,45.00
2023-05-24T00:08:41.063Z,42.80
2023-05-24T00:09:40.962Z,27.90
2023-05-24T00:10:41.147Z,34.80
2023-05-24T00:11:41.842Z,26.40
2023-05-24T00:12:40.794Z,43.50
2023-05-24T00:13:40.700Z,36.00
2023-05-24T00:14:40.624Z,29.60
2023-05-24T00:15:40.592Z,38.10
2023-05-24T00:16:40.566Z,25.60
2023-05-24T00:17:40.459Z,23.80
2023-05-24T00:18:40.422Z,38.70
2023-05-24T00:19:40.290Z,32.00
2023-05-24T00:20:40.576Z,27.00
2023-05-24T00:21:40.217Z,27.20
2023-05-24T00:22:40.157Z,37.40
2023-05-24T00:23:40.051Z,31.90
2023-05-24T00:24:39.969Z,24.80
2023-05-24T00:25:40.527Z,27.00
2023-05-24T00:26:39.898Z,34.70
2023-05-24T00:27:39.830Z,32.30
2023-05-24T00:28:39.750Z,44.10
2023-05-24T00:29:39.661Z,37.90
2023-05-24T00:30:39.762Z,39.50
2023-05-24T00:31:39.680Z,43.30
2023-05-24T00:32:39.554Z,37.70
2023-05-24T00:33:39.428Z,35.40
2023-05-24T00:34:39.344Z,27.00
2023-05-24T00:35:39.301Z,37.80
2023-05-24T00:36:39.243Z,34.60
2023-05-24T00:37:39.242Z,40.10
2023-05-24T00:38:39.153Z,41.30
2023-05-24T00:39:39.050Z,38.40
2023-05-24T00:40:38.982Z,45.50
2023-05-24T00:41:38.927Z,34.40
2023-05-24T00:42:38.894Z,20.20
2023-05-24T00:43:38.799Z,35.60
2023-05-24T00:44:38.786Z,37.20
2023-05-24T00:45:38.752Z,37.00
2023-05-24T00:46:38.645Z,37.20
2023-05-24T00:47:38.581Z,33.50
2023-05-24T00:48:38.482Z,30.70
2023-05-24T00:49:38.454Z,33.40
2023-05-24T00:50:38.354Z,29.40
2023-05-24T00:51:38.299Z,34.80
2023-05-24T00:52:38.229Z,33.30
2023-05-24T00:53:38.219Z,38.90
2023-05-24T00:54:38.102Z,43.00
2023-05-24T00:55:38.064Z,18.30
2023-05-24T00:56:38.000Z,40.50
2023-05-24T00:57:37.914Z,24.50
2023-05-24T00:58:37.909Z,25.60
2023-05-24T00:59:37.818Z,42.20
2023-05-24T01:00:37.727Z,44.00
2023-05-24T01:01:37.738Z,31.20
2023-05-24T01:02:37.735Z,36.90
2023-05-24T01:03:37.718Z,41.60
2023-05-24T01:04:37.526Z,29.80
2023-05-24T01:05:38.027Z,39.70
2023-05-24T01:06:37.377Z,38.10
2023-05-24T01:07:37.826Z,41.20
2023-05-24T01:08:38.855Z,28.10
2023-05-24T01:09:37.185Z,24.30
2023-05-24T01:10:37.988Z,27.90
2023-05-24T01:11:38.029Z,34.20
2023-05-24T01:12:36.967Z,31.80
2023-05-24T01:13:36.912Z,30.60
2023-05-24T01:14:36.896Z,38.70
2023-05-24T01:15:36.898Z,28.90
2023-05-24T01:16:36.842Z,25.80
2023-05-24T01:17:36.728Z,36.70
2023-05-24T01:18:36.602Z,27.90
2023-05-24T01:19:36.604Z,37.60
2023-05-24T01:20:36.482Z,41.30
2023-05-24T01:21:36.444Z,40.00
2023-05-24T01:22:36.386Z,27.00
2023-05-24T01:23:36.284Z,27.60
2023-05-24T01:24:36.220Z,36.30
2023-05-24T01:25:36.188Z,24.10
2023-05-24T01:26:36.192Z,27.70
2023-05-24T01:27:36.013Z,33.60
2023-05-24T01:28:35.942Z,37.90
2023-05-24T01:29:35.975Z,34.20
2023-05-24T01:30:36.559Z,30.20
2023-05-24T01:31:35.869Z,39.10
2023-05-24T01:32:35.772Z,42.40
2023-05-24T01:33:35.634Z,35.90
2023-05-24T01:34:35.578Z,27.00
2023-05-24T01:35:35.531Z,34.50
2023-05-24T01:36:35.583Z,30.90
2023-05-24T01:37:35.453Z,39.40
2023-05-24T01:38:35.368Z,23.40
2023-05-24T01:39:35.293Z,37.40
2023-05-24T01:40:35.200Z,41.80
2023-05-24T01:41:35.130Z,26.40
2023-05-24T01:42:35.108Z,35.40
2023-05-24T01:43:35.020Z,31.50
2023-05-24T01:44:34.947Z,54.20
2023-05-24T01:45:34.914Z,33.90
2023-05-24T01:46:34.912Z,31.40
2023-05-24T01:47:34.876Z,42.50
2023-05-24T01:48:34.713Z,33.60
2023-05-24T01:49:34.669Z,34.00
2023-05-24T01:50:34.598Z,56.20
2023-05-24T01:51:34.516Z,48.40
2023-05-24T01:52:34.500Z,43.80
2023-05-24T01:53:34.411Z,39.20
2023-05-24T01:54:34.315Z,46.80
2023-05-24T01:55:34.234Z,28.50
2023-05-24T01:56:34.197Z,40.50
2023-05-24T01:57:34.235Z,45.90
2023-05-24T01:58:34.097Z,41.50
2023-05-24T01:59:34.039Z,41.80
2023-05-24T02:00:34.000Z,38.60
2023-05-24T02:01:34.020Z,36.00
2023-05-24T02:02:33.882Z,37.30
2023-05-24T02:03:33.823Z,45.20
2023-05-24T02:04:33.700Z,35.60
2023-05-24T02:05:33.650Z,40.60
2023-05-24T02:06:33.626Z,34.40
2023-05-24T02:07:33.526Z,30.30
2023-05-24T02:08:33.406Z,35.80
2023-05-24T02:09:33.348Z,28.90
2023-05-24T02:10:33.337Z,26.10
2023-05-24T02:11:33.310Z,41.40
2023-05-24T02:12:33.271Z,36.60
2023-05-24T02:13:33.189Z,46.40
2023-05-24T02:14:33.053Z,43.30
2023-05-24T02:15:32.967Z,41.90
2023-05-24T02:16:33.139Z,37.60
2023-05-24T02:17:32.894Z,48.30
2023-05-24T02:18:32.778Z,40.10
2023-05-24T02:19:32.722Z,29.70
2023-05-24T02:20:33.362Z,52.40
2023-05-24T02:21:32.641Z,43.10
2023-05-24T02:22:32.579Z,44.80
2023-05-24T02:23:32.556Z,48.20
2023-05-24T02:24:32.428Z,50.00
2023-05-24T02:25:32.356Z,50.50
2023-05-24T02:26:32.273Z,37.20
2023-05-24T02:27:32.265Z,41.30
2023-05-24T02:28:32.358Z,60.60
2023-05-24T02:29:32.176Z,42.40
2023-05-24T02:30:32.081Z,42.60
2023-05-24T02:31:32.027Z,33.20
2023-05-24T02:32:31.953Z,36.40
2023-05-24T02:33:32.811Z,43.50
2023-05-24T02:34:32.790Z,28.50
2023-05-24T02:35:31.723Z,45.20
2023-05-24T02:36:31.691Z,24.20
2023-05-24T02:37:31.607Z,32.90
2023-05-24T02:38:31.578Z,41.30
2023-05-24T02:39:31.611Z,44.80
2023-05-24T02:40:31.416Z,45.60
2023-05-24T02:41:31.371Z,35.80
2023-05-24T02:42:31.319Z,38.20
2023-05-24T02:43:31.234Z,61.00
2023-05-24T02:44:31.160Z,45.50
2023-05-24T02:45:31.045Z,48.40
2023-05-24T02:46:31.152Z,53.30
2023-05-24T02:47:30.939Z,44.70
2023-05-24T02:48:30.880Z,44.80
2023-05-24T02:49:30.811Z,40.60
2023-05-24T02:50:30.769Z,53.20
2023-05-24T02:51:30.686Z,49.40
2023-05-24T02:52:30.608Z,61.00
2023-05-24T02:53:30.551Z,36.80
2023-05-24T02:54:30.481Z,51.80
2023-05-24T02:55:30.411Z,29.90
2023-05-24T02:56:30.378Z,47.60
2023-05-24T02:57:30.269Z,49.90
2023-05-24T02:58:30.252Z,44.70
2023-05-24T02:59:30.182Z,56.30
2023-05-24T03:00:30.060Z,40.30
2023-05-24T03:01:30.083Z,34.70
2023-05-24T03:02:30.019Z,37.90
2023-05-24T03:03:30.033Z,32.90
2023-05-24T03:04:29.838Z,38.60
2023-05-24T03:05:29.776Z,56.80
2023-05-24T03:06:30.508Z,36.60
2023-05-24T03:07:30.523Z,36.50
2023-05-24T03:08:29.626Z,45.80
2023-05-24T03:09:29.722Z,43.30
2023-05-24T03:10:29.470Z,43.00
2023-05-24T03:11:29.404Z,46.50
2023-05-24T03:12:29.330Z,59.40
2023-05-24T03:13:29.253Z,39.80
2023-05-24T03:14:29.205Z,52.80
2023-05-24T03:15:29.484Z,36.10
2023-05-24T03:16:29.134Z,52.60
2023-05-24T03:17:29.079Z,35.40
2023-05-24T03:18:29.110Z,49.90
2023-05-24T03:19:28.917Z,45.60
2023-05-24T03:20:28.994Z,54.20
2023-05-24T03:21:28.737Z,34.30
2023-05-24T03:22:28.701Z,40.00
2023-05-24T03:23:28.664Z,42.50
2023-05-24T03:24:28.655Z,47.90
2023-05-24T03:25:28.510Z,33.70
2023-05-24T03:26:28.423Z,38.50
2023-05-24T03:27:28.391Z,50.40
2023-05-24T03:28:28.345Z,38.40
2023-05-24T03:29:28.267Z,43.60
2023-05-24T03:30:28.186Z,31.90
2023-05-24T03:31:28.200Z,48.80
2023-05-24T03:32:28.823Z,45.10
2023-05-24T03:33:28.007Z,50.10
2023-05-24T03:34:27.943Z,47.70
2023-05-24T03:35:28.026Z,48.20
2023-05-24T03:36:27.795Z,63.70
2023-05-24T03:37:27.793Z,53.10
2023-05-24T03:38:27.714Z,48.50
2023-05-24T03:39:27.660Z,60.40
2023-05-24T03:40:27.582Z,46.80
2023-05-24T03:41:27.551Z,45.30
2023-05-24T03:42:27.434Z,44.50
2023-05-24T03:43:27.452Z,53.10
2023-05-24T03:44:27.307Z,62.60
2023-05-24T03:45:37.651Z,50.40
2023-05-24T03:46:27.229Z,49.60
2023-05-24T03:47:27.173Z,42.90
2023-05-24T03:48:27.066Z,38.80
2023-05-24T03:49:26.975Z,47.70
2023-05-24T03:50:27.017Z,45.30
2023-05-24T03:51:26.880Z,45.10
2023-05-24T03:52:26.777Z,57.70
2023-05-24T03:53:26.782Z,38.90
2023-05-24T03:54:26.699Z,42.90
2023-05-24T03:55:26.618Z,68.20
2023-05-24T03:56:26.691Z,45.80
2023-05-24T03:57:26.462Z,48.60
2023-05-24T03:58:26.397Z,45.40
2023-05-24T03:59:26.356Z,55.50
2023-05-24T04:00:26.336Z,59.10
2023-05-24T04:01:33.296Z,52.40
2023-05-24T04:02:26.366Z,46.40
2023-05-24T04:03:26.457Z,42.50
2023-05-24T04:04:26.784Z,48.60
2023-05-24T04:05:25.949Z,45.60
2023-05-24T04:06:25.960Z,43.00
2023-05-24T04:07:25.848Z,42.60
2023-05-24T04:08:25.813Z,59.60
2023-05-24T04:09:25.693Z,39.80
2023-05-24T04:10:25.721Z,51.10
2023-05-24T04:11:25.594Z,48.90
2023-05-24T04:12:25.530Z,52.10
2023-05-24T04:13:25.502Z,45.80
2023-05-24T04:14:25.403Z,58.30
2023-05-24T04:15:25.389Z,52.80
2023-05-24T04:16:25.334Z,63.60
2023-05-24T04:17:26.039Z,57.60
2023-05-24T04:18:25.484Z,48.40
2023-05-24T04:19:25.060Z,60.80
2023-05-24T04:20:25.101Z,71.40
2023-05-24T04:21:24.966Z,68.00
2023-05-24T04:22:25.891Z,69.40
2023-05-24T04:23:24.898Z,54.90
2023-05-24T04:24:24.761Z,60.70
2023-05-24T04:25:24.722Z,58.30
2023-05-24T04:26:24.642Z,45.50
2023-05-24T04:27:24.621Z,40.80
2023-05-24T04:28:24.741Z,62.90
2023-05-24T04:29:24.477Z,55.50
2023-05-24T04:30:24.428Z,56.60
2023-05-24T04:31:24.392Z,65.90
2023-05-24T04:32:24.296Z,59.70
2023-05-24T04:33:24.191Z,61.00
2023-05-24T04:34:24.166Z,63.80
2023-05-24T04:35:24.063Z,52.30
2023-05-24T04:36:24.057Z,54.60
2023-05-24T04:37:23.975Z,64.10
2023-05-24T04:38:23.948Z,54.00
2023-05-24T04:39:23.800Z,64.80
2023-05-24T04:40:23.764Z,65.40
2023-05-24T04:41:23.685Z,66.60
2023-05-24T04:42:23.616Z,67.40
2023-05-24T04:43:23.578Z,60.20
2023-05-24T04:44:23.665Z,60.90
2023-05-24T04:45:23.466Z,55.70
2023-05-24T04:46:23.392Z,66.30
2023-05-24T04:47:23.366Z,73.80
2023-05-24T04:48:23.254Z,77.60
2023-05-24T04:49:23.219Z,57.00
2023-05-24T04:50:23.185Z,58.40
2023-05-24T04:51:23.078Z,56.50
2023-05-24T04:52:22.989Z,45.30
2023-05-24T04:53:22.951Z,67.80
2023-05-24T04:54:22.941Z,64.60
2023-05-24T04:55:22.816Z,72.60
2023-05-24T04:56:22.782Z,60.50
2023-05-24T04:57:22.695Z,64.20
2023-05-24T04:58:22.632Z,71.80
2023-05-24T04:59:22.566Z,64.90
2023-05-24T05:00:22.509Z,62.20
2023-05-24T05:01:22.549Z,70.20
2023-05-24T05:02:22.414Z,67.80
2023-05-24T05:03:22.375Z,51.40
2023-05-24T05:04:22.286Z,66.60
2023-05-24T05:05:22.211Z,60.80
2023-05-24T05:06:22.127Z,54.30
2023-05-24T05:07:22.057Z,74.40
2023-05-24T05:08:22.004Z,63.00
2023-05-24T05:09:22.767Z,57.60
2023-05-24T05:10:23.759Z,69.90
2023-05-24T05:11:21.889Z,67.40
2023-05-24T05:12:21.733Z,67.50
2023-05-24T05:13:21.675Z,65.00
2023-05-24T05:14:21.594Z,66.00
2023-05-24T05:15:21.592Z,52.60
2023-05-24T05:16:21.516Z,61.80
2023-05-24T05:17:21.450Z,64.30
2023-05-24T05:18:21.360Z,75.40
2023-05-24T05:19:21.303Z,72.80
2023-05-24T05:20:21.338Z,57.90
2023-05-24T05:21:21.210Z,59.90
2023-05-24T05:22:21.129Z,59.40
2023-05-24T05:23:21.063Z,71.10
2023-05-24T05:24:21.186Z,67.60
2023-05-24T05:25:21.231Z,64.60
2023-05-24T05:26:20.889Z,69.50
2023-05-24T05:27:20.841Z,59.80
2023-05-24T05:28:20.826Z,62.40
2023-05-24T05:29:22.194Z,66.20
2023-05-24T05:30:20.635Z,70.50
2023-05-24T05:31:20.572Z,58.10
2023-05-24T05:32:20.542Z,58.90
2023-05-24T05:33:20.599Z,64.80
2023-05-24T05:34:20.390Z,70.60
2023-05-24T05:35:20.325Z,77.90
2023-05-24T05:36:20.254Z,67.80
2023-05-24T05:37:20.216Z,64.60
2023-05-24T05:38:20.083Z,69.50
2023-05-24T05:39:20.070Z,78.90
2023-05-24T05:40:19.987Z,69.90
2023-05-24T05:41:19.953Z,89.90
2023-05-24T05:42:19.822Z,67.90
2023-05-24T05:43:19.887Z,63.30
2023-05-24T05:44:19.700Z,66.30
2023-05-24T05:45:19.664Z,61.70
2023-05-24T05:46:19.661Z,62.30
2023-05-24T05:47:19.547Z,61.30
2023-05-24T05:48:19.576Z,63.20
2023-05-24T05:49:19.399Z,71.10
2023-05-24T05:50:19.358Z,61.40
2023-05-24T05:51:19.328Z,65.40
2023-05-24T05:52:19.267Z,70.70
2023-05-24T05:53:19.172Z,63.30
2023-05-24T05:54:19.172Z,68.80
2023-05-24T05:55:19.068Z,58.70
2023-05-24T05:56:18.956Z,62.30
2023-05-24T05:57:18.946Z,60.90
2023-05-24T05:58:18.888Z,64.80
2023-05-24T05:59:18.937Z,66.50
2023-05-24T06:00:18.731Z,76.40
2023-05-24T06:01:18.673Z,52.40
2023-05-24T06:02:18.609Z,50.20
2023-05-24T06:03:18.747Z,76.60
2023-05-24T06:04:19.257Z,66.20
2023-05-24T06:05:18.470Z,80.40
2023-05-24T06:06:18.373Z,65.40
2023-05-24T06:07:18.258Z,64.80
2023-05-24T06:08:18.960Z,61.90
2023-05-24T06:09:18.181Z,56.40
2023-05-24T06:10:18.152Z,79.30
2023-05-24T06:11:18.068Z,67.60
2023-05-24T06:12:17.989Z,86.20
2023-05-24T06:13:18.771Z,68.80
2023-05-24T06:14:17.898Z,61.50
2023-05-24T06:15:17.807Z,61.00
2023-05-24T06:16:17.797Z,52.40
2023-05-24T06:17:18.474Z,67.70
2023-05-24T06:18:17.589Z,60.40
2023-05-24T06:19:17.526Z,49.50
2023-05-24T06:20:17.521Z,73.00
2023-05-24T06:21:17.412Z,62.90
2023-05-24T06:22:17.969Z,56.00
2023-05-24T06:23:17.340Z,70.40
2023-05-24T06:24:17.251Z,60.60
2023-05-24T06:25:17.159Z,73.60
2023-05-24T06:26:17.160Z,80.60
2023-05-24T06:27:17.061Z,61.80
2023-05-24T06:28:16.956Z,72.90
2023-05-24T06:29:16.908Z,63.60
2023-05-24T06:30:16.865Z,46.90
2023-05-24T06:31:16.821Z,70.30
2023-05-24T06:32:16.709Z,77.40
2023-05-24T06:33:17.474Z,65.60
2023-05-24T06:34:16.592Z,58.90
2023-05-24T06:35:16.539Z,65.20
2023-05-24T06:36:16.526Z,74.60
2023-05-24T06:37:16.439Z,65.60
2023-05-24T06:38:16.305Z,49.50
2023-05-24T06:39:16.289Z,56.60
2023-05-24T06:40:16.233Z,60.50
2023-05-24T06:41:16.148Z,49.00
2023-05-24T06:42:16.291Z,64.10
2023-05-24T06:43:16.027Z,71.20
2023-05-24T06:44:15.957Z,63.10
2023-05-24T06:45:15.860Z,65.50
2023-05-24T06:46:15.860Z,68.50
2023-05-24T06:47:15.935Z,71.30
2023-05-24T06:48:15.767Z,66.40
2023-05-24T06:49:15.645Z,63.10
2023-05-24T06:50:15.584Z,74.90
2023-05-24T06:51:15.569Z,52.80
2023-05-24T06:52:15.465Z,60.50
2023-05-24T06:53:15.393Z,55.00
2023-05-24T06:54:15.361Z,69.50
2023-05-24T06:55:15.261Z,60.70
2023-05-24T06:56:15.317Z,56.90
2023-05-24T06:57:15.128Z,68.20
2023-05-24T06:58:15.077Z,58.60
2023-05-24T06:59:15.023Z,83.50
2023-05-24T07:00:14.975Z,69.00
2023-05-24T07:01:14.942Z,66.50
2023-05-24T07:02:14.835Z,71.70
2023-05-24T07:03:14.815Z,74.10
2023-05-24T07:04:14.806Z,62.80
2023-05-24T07:05:14.666Z,60.80
2023-05-24T07:06:14.615Z,58.30
2023-05-24T07:07:14.513Z,61.30
2023-05-24T07:08:14.422Z,71.50
2023-05-24T07:09:14.457Z,70.80
2023-05-24T07:10:14.340Z,62.30
2023-05-24T07:11:14.326Z,55.00
2023-05-24T07:12:14.211Z,58.50
2023-05-24T07:13:14.159Z,61.00
2023-05-24T07:14:14.051Z,65.20
2023-05-24T07:15:14.043Z,68.90
2023-05-24T07:16:14.160Z,61.20
2023-05-24T07:17:14.610Z,54.70
2023-05-24T07:18:13.831Z,65.60
2023-05-24T07:19:13.870Z,64.20
2023-05-24T07:20:13.782Z,49.30
2023-05-24T07:21:13.914Z,68.90
2023-05-24T07:22:13.619Z,73.10
2023-05-24T07:23:13.537Z,61.30
2023-05-24T07:24:16.009Z,72.70
2023-05-24T07:25:13.415Z,58.50
2023-05-24T07:26:13.328Z,59.80
2023-05-24T07:27:13.297Z,61.50
2023-05-24T07:28:13.441Z,65.00
2023-05-24T07:29:13.351Z,58.10
2023-05-24T07:30:23.701Z,58.90
2023-05-24T07:31:13.014Z,53.00
2023-05-24T07:32:13.029Z,60.30
2023-05-24T07:33:12.921Z,74.60
2023-05-24T07:34:12.798Z,68.40
2023-05-24T07:35:12.782Z,57.00
2023-05-24T07:36:12.772Z,69.00
2023-05-24T07:37:12.616Z,59.10
2023-05-24T07:38:12.638Z,97.50
2023-05-24T07:39:12.576Z,56.80
2023-05-24T07:40:12.464Z,69.70
2023-05-24T07:41:12.428Z,60.30
2023-05-24T07:42:12.324Z,79.90
2023-05-24T07:43:12.248Z,53.50
2023-05-24T07:44:12.268Z,54.00
2023-05-24T07:45:12.243Z,48.30
2023-05-24T07:46:12.064Z,57.10
2023-05-24T07:47:12.184Z,50.80
2023-05-24T07:48:12.057Z,65.30
2023-05-24T07:49:11.888Z,65.40
2023-05-24T07:50:11.851Z,53.30
2023-05-24T07:51:11.820Z,42.50
2023-05-24T07:52:11.722Z,55.10
2023-05-24T07:53:11.645Z,52.80
2023-05-24T07:54:11.564Z,43.30
2023-05-24T07:55:11.489Z,46.80
2023-05-24T07:56:11.516Z,42.80
2023-05-24T07:57:11.358Z,44.50
2023-05-24T07:58:11.344Z,48.60
2023-05-24T07:59:11.288Z,49.90
2023-05-24T08:00:11.184Z,52.70
2023-05-24T08:01:11.132Z,46.00
2023-05-24T08:02:11.113Z,38.90
2023-05-24T08:03:11.067Z,37.10
2023-05-24T08:04:10.975Z,51.90
2023-05-24T08:05:10.898Z,30.70
2023-05-24T08:06:10.829Z,42.40
2023-05-24T08:07:11.162Z,30.70
2023-05-24T08:08:11.287Z,33.20
2023-05-24T08:09:10.657Z,47.70
2023-05-24T08:10:10.571Z,39.00
2023-05-24T08:11:10.543Z,34.10
2023-05-24T08:12:10.427Z,25.60
2023-05-24T08:13:11.065Z,29.60
2023-05-24T08:14:10.314Z,34.80
2023-05-24T08:15:10.255Z,32.20
2023-05-24T08:16:10.238Z,22.80
2023-05-24T08:17:10.138Z,25.70
2023-05-24T08:18:10.187Z,39.20
2023-05-24T08:19:09.998Z,29.80
2023-05-24T08:20:10.276Z,27.60
2023-05-24T08:21:09.939Z,38.40
2023-05-24T08:22:10.718Z,23.40
2023-05-24T08:23:09.772Z,22.50
2023-05-24T08:24:09.829Z,31.10
2023-05-24T08:25:09.668Z,32.80
2023-05-24T08:26:09.566Z,29.80
2023-05-24T08:27:09.501Z,31.60
2023-05-24T08:28:09.526Z,35.00
2023-05-24T08:29:09.513Z,27.80
2023-05-24T08:30:09.342Z,28.80
2023-05-24T08:31:09.496Z,29.50
2023-05-24T08:32:09.377Z,31.20
2023-05-24T08:33:09.160Z,29.10
2023-05-24T08:34:09.130Z,34.20
2023-05-24T08:35:20.153Z,33.90
2023-05-24T08:36:09.000Z,34.10
2023-05-24T08:37:09.919Z,40.50
2023-05-24T08:38:08.830Z,38.80
2023-05-24T08:39:08.793Z,39.70
2023-05-24T08:40:08.784Z,31.00
2023-05-24T08:41:08.747Z,23.80
2023-05-24T08:42:10.321Z,48.40
2023-05-24T08:43:08.536Z,27.80
2023-05-24T08:44:08.518Z,28.30
2023-05-24T08:45:08.412Z,36.10
2023-05-24T08:46:08.411Z,41.30
2023-05-24T08:47:08.302Z,44.00
2023-05-24T08:48:08.275Z,31.40
2023-05-24T08:49:08.396Z,63.20
2023-05-24T08:50:08.150Z,55.80
2023-05-24T08:51:08.285Z,67.40
2023-05-24T08:52:08.085Z,44.50
2023-05-24T08:53:08.011Z,45.20
2023-05-24T08:54:07.902Z,45.00
2023-05-24T08:55:07.839Z,65.10
2023-05-24T08:56:07.724Z,47.50
2023-05-24T08:57:07.759Z,45.70
2023-05-24T08:58:07.644Z,42.30
2023-05-24T08:59:07.986Z,54.10
2023-05-24T09:00:07.554Z,50.80
2023-05-24T09:01:07.934Z,49.30
2023-05-24T09:02:07.504Z,32.30
2023-05-24T09:03:07.453Z,35.20
2023-05-24T09:04:07.331Z,32.40
2023-05-24T09:05:07.170Z,57.20
2023-05-24T09:06:07.103Z,39.50
2023-05-24T09:07:07.032Z,37.70
2023-05-24T09:08:07.208Z,30.20
2023-05-24T09:09:07.478Z,23.90
2023-05-24T09:10:06.947Z,20.20
2023-05-24T09:11:06.821Z,31.60
2023-05-24T09:12:06.734Z,32.20
2023-05-24T09:13:06.753Z,39.50
2023-05-24T09:14:06.721Z,25.90
2023-05-24T09:15:06.864Z,34.70
2023-05-24T09:16:06.897Z,32.80
2023-05-24T09:17:06.554Z,26.50
2023-05-24T09:18:08.141Z,33.20
2023-05-24T09:19:07.452Z,29.50
2023-05-24T09:20:06.451Z,35.80
2023-05-24T09:21:06.219Z,28.80
2023-05-24T09:22:08.452Z,27.10
2023-05-24T09:23:10.525Z,34.60
2023-05-24T09:24:08.982Z,34.70
2023-05-24T09:25:09.190Z,44.60
2023-05-24T09:26:05.895Z,35.00
2023-05-24T09:27:05.801Z,30.60
2023-05-24T09:28:05.763Z,25.50
2023-05-24T09:29:05.734Z,34.90
2023-05-24T09:30:05.676Z,29.70
2023-05-24T09:31:07.913Z,29.00
2023-05-24T09:32:05.547Z,24.70
2023-05-24T09:33:05.580Z,29.20
2023-05-24T09:34:05.510Z,23.50
2023-05-24T09:35:05.358Z,27.90
2023-05-24T09:36:05.298Z,25.60
2023-05-24T09:37:05.349Z,29.10
2023-05-24T09:38:05.962Z,21.00
2023-05-24T09:39:05.168Z,24.50
2023-05-24T09:40:05.960Z,18.80
2023-05-24T09:41:05.041Z,18.30
2023-05-24T09:42:04.954Z,24.10
2023-05-24T09:43:04.876Z,32.20
2023-05-24T09:44:04.775Z,32.50
2023-05-24T09:45:04.796Z,26.80
2023-05-24T09:46:04.778Z,15.10
2023-05-24T09:47:05.630Z,25.00
2023-05-24T09:48:04.606Z,49.50
2023-05-24T09:49:04.473Z,32.80
2023-05-24T09:50:04.412Z,25.60
2023-05-24T09:51:04.409Z,23.60
2023-05-24T09:52:04.379Z,22.50
2023-05-24T09:53:04.259Z,19.90
2023-05-24T09:54:04.177Z,39.40
2023-05-24T09:55:04.114Z,18.80
2023-05-24T09:56:04.102Z,18.90
2023-05-24T09:57:04.922Z,16.90
2023-05-24T09:58:03.917Z,24.30
2023-05-24T09:59:03.892Z,23.80
2023-05-24T10:00:03.807Z,20.40
2023-05-24T10:01:03.812Z,21.60
2023-05-24T10:02:03.716Z,26.30
2023-05-24T10:03:03.698Z,14.00
2023-05-24T10:04:06.171Z,34.30
2023-05-24T10:05:03.502Z,56.90
2023-05-24T10:06:03.432Z,15.70
2023-05-24T10:07:03.450Z,34.00
2023-05-24T10:08:04.257Z,27.30
2023-05-24T10:09:03.293Z,17.60
2023-05-24T10:10:04.755Z,31.20
2023-05-24T10:11:03.125Z,16.30
2023-05-24T10:12:03.097Z,30.60
2023-05-24T10:13:03.131Z,29.30
2023-05-24T10:14:02.960Z,28.00
2023-05-24T10:15:02.921Z,26.50
2023-05-24T10:16:02.886Z,32.60
2023-05-24T10:17:02.898Z,30.70
2023-05-24T10:18:02.831Z,25.50
2023-05-24T10:19:02.662Z,16.60
2023-05-24T10:20:02.668Z,22.30
2023-05-24T10:21:02.710Z,25.00
2023-05-24T10:22:02.462Z,19.50
2023-05-24T10:23:02.429Z,13.90
2023-05-24T10:24:02.412Z,11.80
2023-05-24T10:25:02.298Z,26.80
2023-05-24T10:26:02.381Z,9.90
2023-05-24T10:27:02.963Z,28.70
2023-05-24T10:28:02.111Z,12.30
2023-05-24T10:29:02.027Z,15.50
2023-05-24T10:30:02.004Z,14.20
2023-05-24T10:31:02.016Z,18.20
2023-05-24T10:32:01.937Z,25.40
2023-05-24T10:33:01.822Z,18.60
2023-05-24T10:34:07.625Z,15.10
2023-05-24T10:35:01.693Z,17.70
2023-05-24T10:36:01.587Z,26.50
2023-05-24T10:37:01.569Z,20.70
2023-05-24T10:38:01.515Z,23.90
2023-05-24T10:39:01.454Z,21.20
2023-05-24T10:40:01.354Z,16.10
2023-05-24T10:41:01.274Z,24.10
2023-05-24T10:42:01.292Z,23.30
2023-05-24T10:43:01.173Z,17.50
2023-05-24T10:45:01.203Z,19.20
2023-05-24T10:46:01.025Z,16.40
2023-05-24T10:47:00.932Z,19.00
2023-05-24T10:48:00.910Z,24.30
2023-05-24T10:49:00.831Z,21.70
2023-05-24T10:50:00.802Z,19.90
2023-05-24T10:51:00.768Z,17.00
2023-05-24T10:52:00.659Z,10.80
2023-05-24T10:53:00.564Z,19.70
2023-05-24T10:54:00.530Z,11.20
2023-05-24T10:55:03.899Z,18.20
2023-05-24T10:56:00.458Z,18.10
2023-05-24T10:57:00.348Z,20.60
2023-05-24T10:58:00.253Z,10.70
2023-05-24T10:59:00.254Z,17.10
2023-05-24T11:00:00.709Z,19.00
2023-05-24T11:01:00.082Z,21.60
2023-05-24T11:02:00.077Z,11.50
2023-05-24T11:02:59.945Z,22.40
2023-05-24T11:03:59.895Z,26.20
2023-05-24T11:04:59.888Z,19.30
2023-05-24T11:05:59.800Z,18.80
2023-05-24T11:06:59.734Z,18.70
2023-05-24T11:07:59.690Z,25.40
2023-05-24T11:08:59.657Z,13.50
2023-05-24T11:09:59.559Z,18.80
2023-05-24T11:11:08.615Z,19.90
2023-05-24T11:11:59.454Z,19.40
2023-05-24T11:12:59.372Z,17.10
2023-05-24T11:14:00.254Z,27.30
2023-05-24T11:14:59.278Z,18.10
2023-05-24T11:15:59.215Z,37.60
2023-05-24T11:16:59.753Z,17.70
2023-05-24T11:17:59.068Z,15.80
2023-05-24T11:18:58.953Z,22.20
2023-05-24T11:19:58.937Z,15.10
2023-05-24T11:20:58.860Z,20.00
2023-05-24T11:21:59.411Z,22.50
2023-05-24T11:22:58.813Z,20.10
2023-05-24T11:23:58.735Z,27.30
2023-05-24T11:24:58.646Z,28.20
2023-05-24T11:25:58.564Z,26.20
2023-05-24T11:26:58.502Z,19.20
2023-05-24T11:28:00.032Z,40.80
2023-05-24T11:29:04.062Z,33.00
2023-05-24T11:29:59.054Z,29.60
2023-05-24T11:30:59.984Z,16.10
2023-05-24T11:31:58.852Z,22.80
2023-05-24T11:32:58.159Z,26.30
2023-05-24T11:33:58.097Z,30.10
2023-05-24T11:34:57.995Z,18.50
2023-05-24T11:35:57.965Z,24.00
2023-05-24T11:36:57.880Z,21.40
2023-05-24T11:37:57.843Z,28.90
2023-05-24T11:38:58.720Z,28.60
2023-05-24T11:39:57.728Z,31.90
2023-05-24T11:40:57.655Z,23.00
2023-05-24T11:41:57.590Z,34.00
2023-05-24T11:42:57.504Z,34.60
2023-05-24T11:43:57.455Z,39.80
2023-05-24T11:44:57.400Z,29.90
2023-05-24T11:45:57.368Z,35.30
2023-05-24T11:46:57.332Z,27.90
2023-05-24T11:47:58.007Z,31.10
2023-05-24T11:48:58.476Z,33.30
2023-05-24T11:49:57.083Z,33.60
2023-05-24T11:50:57.046Z,51.50
2023-05-24T11:51:56.938Z,30.20
2023-05-24T11:52:57.054Z,27.20
2023-05-24T11:53:56.834Z,27.30
2023-05-24T11:54:56.807Z,40.40
2023-05-24T11:55:56.696Z,38.50
2023-05-24T11:56:56.697Z,32.80
2023-05-24T11:57:56.632Z,31.20
2023-05-24T11:58:57.962Z,41.10
2023-05-24T11:59:56.505Z,31.60
2023-05-24T12:00:56.442Z,37.00
2023-05-24T12:01:56.445Z,33.10
2023-05-24T12:02:57.083Z,48.70
2023-05-24T12:03:56.404Z,35.00
2023-05-24T12:04:56.204Z,24.50
2023-05-24T12:05:56.102Z,31.10
2023-05-24T12:06:56.111Z,43.40
2023-05-24T12:07:55.997Z,35.10
2023-05-24T12:08:55.945Z,29.50
2023-05-24T12:09:55.860Z,29.60
2023-05-24T12:10:56.486Z,42.10
2023-05-24T12:11:55.733Z,31.30
2023-05-24T12:12:55.688Z,29.30
2023-05-24T12:13:55.604Z,35.80
2023-05-24T12:14:55.633Z,37.60
2023-05-24T12:15:56.774Z,203.70
2023-05-24T12:16:55.456Z,37.20
2023-05-24T12:17:55.460Z,31.30
2023-05-24T12:19:05.445Z,42.50
2023-05-24T12:19:55.280Z,55.30
2023-05-24T12:20:55.263Z,30.50
2023-05-24T12:21:55.722Z,30.50
2023-05-24T12:22:55.121Z,43.00
2023-05-24T12:23:55.003Z,28.60
2023-05-24T12:24:54.935Z,35.30
2023-05-24T12:25:54.936Z,58.40
2023-05-24T12:26:54.836Z,40.80
2023-05-24T12:27:54.797Z,43.90
2023-05-24T12:28:54.746Z,31.40
2023-05-24T12:29:54.713Z,38.00
2023-05-24T12:30:54.683Z,22.50
2023-05-24T12:31:54.946Z,38.60
2023-05-24T12:32:54.510Z,39.70
2023-05-24T12:33:54.676Z,36.60
2023-05-24T12:34:54.345Z,32.30
2023-05-24T12:35:54.273Z,43.20
2023-05-24T12:36:54.252Z,28.50
2023-05-24T12:37:54.204Z,24.50
2023-05-24T12:38:54.087Z,34.90
2023-05-24T12:39:54.845Z,38.20
2023-05-24T12:41:08.213Z,40.80
2023-05-24T12:41:53.966Z,32.10
2023-05-24T12:42:53.830Z,26.10
2023-05-24T12:43:53.745Z,27.10
2023-05-24T12:44:54.801Z,31.50
2023-05-24T12:45:54.746Z,29.00
2023-05-24T12:46:53.716Z,29.60
2023-05-24T12:47:53.611Z,45.10
2023-05-24T12:48:53.484Z,39.20
2023-05-24T12:49:53.405Z,31.20
2023-05-24T12:50:53.374Z,17.90
2023-05-24T12:51:53.306Z,24.60
2023-05-24T12:52:53.288Z,27.40